sensor_id;sensor_type;location;lat;lon;timestamp;P1;durP1;ratioP1;P2;durP2;ratioP2
18387;SDS011;9320;50.256;19.026;2023-06-22T00:00:53;15.85;;;10.35;;
18387;SDS011;9320;50.256;19.026;2023-06-22T00:03:22;12.73;;;10.50;;
18387;SDS011;9320;50.256;19.026;2023-06-22T00:05:52;13.55;;;10.13;;
18387;SDS011;9320;50.256;19.026;2023-06-22T00:08:20;12.88;;;9.93;;
18387;SDS011;9320;50.256;19.026;2023-06-22T00:10:49;16.98;;;10.88;;
18387;SDS011;9320;50.256;19.026;2023-06-22T00:13:17;12.93;;;9.35;;
18387;SDS011;9320;50.256;19.026;2023-06-22T00:15:45;13.70;;;10.27;;
18387;SDS011;9320;50.256;19.026;2023-06-22T00:18:13;20.80;;;10.73;;
18387;SDS011;9320;50.256;19.026;2023-06-22T00:20:42;15.02;;;10.88;;
18387;SDS011;9320;50.256;19.026;2023-06-22T00:23:12;14.00;;;10.35;;
18387;SDS011;9320;50.256;19.026;2023-06-22T00:25:43;19.10;;;10.80;;
18387;SDS011;9320;50.256;19.026;2023-06-22T00:28:13;19.67;;;10.57;;
18387;SDS011;9320;50.256;19.026;2023-06-22T00:30:41;17.48;;;10.38;;
18387;SDS011;9320;50.256;19.026;2023-06-22T00:33:09;18.30;;;11.23;;
18387;SDS011;9320;50.256;19.026;2023-06-22T00:35:37;18.20;;;10.43;;
18387;SDS011;9320;50.256;19.026;2023-06-22T00:38:07;15.80;;;10.23;;
18387;SDS011;9320;50.256;19.026;2023-06-22T00:40:36;19.33;;;11.30;;
18387;SDS011;9320;50.256;19.026;2023-06-22T00:43:04;17.85;;;10.45;;
18387;SDS011;9320;50.256;19.026;2023-06-22T00:45:34;16.85;;;11.05;;
18387;SDS011;9320;50.256;19.026;2023-06-22T00:48:02;18.20;;;10.63;;
18387;SDS011;9320;50.256;19.026;2023-06-22T00:50:32;15.48;;;10.70;;
18387;SDS011;9320;50.256;19.026;2023-06-22T00:53:02;15.75;;;10.63;;
18387;SDS011;9320;50.256;19.026;2023-06-22T00:55:35;17.80;;;10.88;;
18387;SDS011;9320;50.256;19.026;2023-06-22T00:58:05;18.77;;;10.52;;
18387;SDS011;9320;50.256;19.026;2023-06-22T01:00:38;19.02;;;11.02;;
18387;SDS011;9320;50.256;19.026;2023-06-22T01:03:07;18.10;;;10.70;;
18387;SDS011;9320;50.256;19.026;2023-06-22T01:05:37;17.70;;;10.98;;
18387;SDS011;9320;50.256;19.026;2023-06-22T01:08:08;19.58;;;10.68;;
18387;SDS011;9320;50.256;19.026;2023-06-22T01:10:46;15.70;;;10.73;;
18387;SDS011;9320;50.256;19.026;2023-06-22T01:13:22;16.60;;;10.60;;
18387;SDS011;9320;50.256;19.026;2023-06-22T01:15:59;17.05;;;10.80;;
18387;SDS011;9320;50.256;19.026;2023-06-22T01:18:30;18.08;;;10.88;;
18387;SDS011;9320;50.256;19.026;2023-06-22T01:20:59;15.57;;;10.35;;
18387;SDS011;9320;50.256;19.026;2023-06-22T01:23:30;19.88;;;10.63;;
18387;SDS011;9320;50.256;19.026;2023-06-22T01:26:05;16.30;;;10.80;;
18387;SDS011;9320;50.256;19.026;2023-06-22T01:28:43;14.80;;;10.38;;
18387;SDS011;9320;50.256;19.026;2023-06-22T01:31:14;15.95;;;10.60;;
18387;SDS011;9320;50.256;19.026;2023-06-22T01:33:45;21.10;;;10.80;;
18387;SDS011;9320;50.256;19.026;2023-06-22T01:36:17;15.82;;;10.43;;
18387;SDS011;9320;50.256;19.026;2023-06-22T01:38:45;20.05;;;10.93;;
18387;SDS011;9320;50.256;19.026;2023-06-22T01:41:15;16.90;;;11.00;;
18387;SDS011;9320;50.256;19.026;2023-06-22T01:43:45;19.42;;;10.40;;
18387;SDS011;9320;50.256;19.026;2023-06-22T01:46:14;17.88;;;11.02;;
18387;SDS011;9320;50.256;19.026;2023-06-22T01:48:45;19.15;;;10.23;;
18387;SDS011;9320;50.256;19.026;2023-06-22T01:51:14;17.30;;;10.52;;
18387;SDS011;9320;50.256;19.026;2023-06-22T01:53:42;13.40;;;9.63;;
18387;SDS011;9320;50.256;19.026;2023-06-22T01:56:10;19.70;;;10.43;;
18387;SDS011;9320;50.256;19.026;2023-06-22T01:58:40;16.10;;;9.73;;
18387;SDS011;9320;50.256;19.026;2023-06-22T02:01:24;14.32;;;9.70;;
18387;SDS011;9320;50.256;19.026;2023-06-22T02:04:01;17.67;;;9.95;;
18387;SDS011;9320;50.256;19.026;2023-06-22T02:06:32;20.92;;;10.32;;
18387;SDS011;9320;50.256;19.026;2023-06-22T02:09:05;18.05;;;10.30;;
18387;SDS011;9320;50.256;19.026;2023-06-22T02:11:37;18.55;;;9.60;;
18387;SDS011;9320;50.256;19.026;2023-06-22T02:14:08;15.65;;;10.20;;
18387;SDS011;9320;50.256;19.026;2023-06-22T02:16:36;15.52;;;9.52;;
18387;SDS011;9320;50.256;19.026;2023-06-22T02:19:05;18.85;;;10.13;;
18387;SDS011;9320;50.256;19.026;2023-06-22T02:21:33;20.60;;;10.55;;
18387;SDS011;9320;50.256;19.026;2023-06-22T02:24:01;19.73;;;10.25;;
18387;SDS011;9320;50.256;19.026;2023-06-22T02:26:30;20.23;;;10.05;;
18387;SDS011;9320;50.256;19.026;2023-06-22T02:28:58;17.95;;;10.50;;
18387;SDS011;9320;50.256;19.026;2023-06-22T02:31:28;17.25;;;10.45;;
18387;SDS011;9320;50.256;19.026;2023-06-22T02:33:57;19.45;;;10.23;;
18387;SDS011;9320;50.256;19.026;2023-06-22T02:36:25;20.88;;;10.65;;
18387;SDS011;9320;50.256;19.026;2023-06-22T02:38:57;16.13;;;10.23;;
18387;SDS011;9320;50.256;19.026;2023-06-22T02:41:27;15.32;;;9.82;;
18387;SDS011;9320;50.256;19.026;2023-06-22T02:43:55;16.45;;;10.68;;
18387;SDS011;9320;50.256;19.026;2023-06-22T02:46:24;14.68;;;10.95;;
18387;SDS011;9320;50.256;19.026;2023-06-22T02:48:53;14.77;;;9.95;;
18387;SDS011;9320;50.256;19.026;2023-06-22T02:51:21;16.50;;;10.52;;
18387;SDS011;9320;50.256;19.026;2023-06-22T02:53:49;15.65;;;10.70;;
18387;SDS011;9320;50.256;19.026;2023-06-22T02:56:18;16.02;;;10.75;;
18387;SDS011;9320;50.256;19.026;2023-06-22T02:58:51;14.95;;;11.10;;
18387;SDS011;9320;50.256;19.026;2023-06-22T03:01:19;15.18;;;11.25;;
18387;SDS011;9320;50.256;19.026;2023-06-22T03:03:51;14.88;;;10.65;;
18387;SDS011;9320;50.256;19.026;2023-06-22T03:06:20;15.98;;;10.50;;
18387;SDS011;9320;50.256;19.026;2023-06-22T03:08:50;15.82;;;10.73;;
18387;SDS011;9320;50.256;19.026;2023-06-22T03:11:18;14.63;;;10.70;;
18387;SDS011;9320;50.256;19.026;2023-06-22T03:13:46;16.67;;;10.18;;
18387;SDS011;9320;50.256;19.026;2023-06-22T03:16:14;15.52;;;10.20;;
18387;SDS011;9320;50.256;19.026;2023-06-22T03:18:42;15.68;;;9.80;;
18387;SDS011;9320;50.256;19.026;2023-06-22T03:21:10;17.75;;;10.02;;
18387;SDS011;9320;50.256;19.026;2023-06-22T03:23:39;17.88;;;10.38;;
18387;SDS011;9320;50.256;19.026;2023-06-22T03:26:08;24.08;;;10.45;;
18387;SDS011;9320;50.256;19.026;2023-06-22T03:28:36;14.80;;;9.38;;
18387;SDS011;9320;50.256;19.026;2023-06-22T03:31:05;19.55;;;9.80;;
18387;SDS011;9320;50.256;19.026;2023-06-22T03:33:34;18.58;;;9.70;;
18387;SDS011;9320;50.256;19.026;2023-06-22T03:36:02;18.90;;;10.23;;
18387;SDS011;9320;50.256;19.026;2023-06-22T03:38:30;19.58;;;10.45;;
18387;SDS011;9320;50.256;19.026;2023-06-22T03:41:00;20.17;;;9.77;;
18387;SDS011;9320;50.256;19.026;2023-06-22T03:43:28;16.48;;;10.27;;
18387;SDS011;9320;50.256;19.026;2023-06-22T03:45:56;17.35;;;11.10;;
18387;SDS011;9320;50.256;19.026;2023-06-22T03:48:24;17.15;;;10.68;;
18387;SDS011;9320;50.256;19.026;2023-06-22T03:50:52;19.17;;;11.48;;
18387;SDS011;9320;50.256;19.026;2023-06-22T03:53:20;17.90;;;10.63;;
18387;SDS011;9320;50.256;19.026;2023-06-22T03:55:48;15.75;;;10.35;;
18387;SDS011;9320;50.256;19.026;2023-06-22T03:58:19;17.50;;;10.70;;
18387;SDS011;9320;50.256;19.026;2023-06-22T04:00:47;16.00;;;11.02;;
18387;SDS011;9320;50.256;19.026;2023-06-22T04:03:17;21.90;;;10.15;;
18387;SDS011;9320;50.256;19.026;2023-06-22T04:05:46;17.73;;;10.10;;
18387;SDS011;9320;50.256;19.026;2023-06-22T04:08:15;19.85;;;10.43;;
18387;SDS011;9320;50.256;19.026;2023-06-22T04:10:43;19.95;;;10.63;;
18387;SDS011;9320;50.256;19.026;2023-06-22T04:13:11;21.13;;;11.57;;
18387;SDS011;9320;50.256;19.026;2023-06-22T04:15:40;16.88;;;10.82;;
18387;SDS011;9320;50.256;19.026;2023-06-22T04:18:08;18.92;;;10.90;;
18387;SDS011;9320;50.256;19.026;2023-06-22T04:20:36;17.23;;;11.30;;
18387;SDS011;9320;50.256;19.026;2023-06-22T04:23:05;18.15;;;11.57;;
18387;SDS011;9320;50.256;19.026;2023-06-22T04:25:33;21.08;;;12.15;;
18387;SDS011;9320;50.256;19.026;2023-06-22T04:28:01;22.63;;;12.20;;
18387;SDS011;9320;50.256;19.026;2023-06-22T04:30:32;24.17;;;13.25;;
18387;SDS011;9320;50.256;19.026;2023-06-22T04:33:01;16.25;;;12.40;;
18387;SDS011;9320;50.256;19.026;2023-06-22T04:35:30;21.48;;;12.82;;
18387;SDS011;9320;50.256;19.026;2023-06-22T04:37:58;23.67;;;13.00;;
18387;SDS011;9320;50.256;19.026;2023-06-22T04:40:26;22.35;;;13.25;;
18387;SDS011;9320;50.256;19.026;2023-06-22T04:42:54;21.85;;;13.85;;
18387;SDS011;9320;50.256;19.026;2023-06-22T04:45:22;26.27;;;14.40;;
18387;SDS011;9320;50.256;19.026;2023-06-22T04:47:50;23.58;;;15.07;;
18387;SDS011;9320;50.256;19.026;2023-06-22T04:50:20;25.38;;;15.55;;
18387;SDS011;9320;50.256;19.026;2023-06-22T04:52:50;21.95;;;14.68;;
18387;SDS011;9320;50.256;19.026;2023-06-22T04:55:19;17.73;;;13.43;;
18387;SDS011;9320;50.256;19.026;2023-06-22T04:57:48;26.45;;;16.42;;
18387;SDS011;9320;50.256;19.026;2023-06-22T05:00:16;21.25;;;16.55;;
18387;SDS011;9320;50.256;19.026;2023-06-22T05:02:46;29.60;;;18.90;;
18387;SDS011;9320;50.256;19.026;2023-06-22T05:05:14;26.48;;;20.58;;
18387;SDS011;9320;50.256;19.026;2023-06-22T05:07:46;31.75;;;22.13;;
18387;SDS011;9320;50.256;19.026;2023-06-22T05:10:17;26.83;;;20.13;;
18387;SDS011;9320;50.256;19.026;2023-06-22T05:12:45;32.53;;;23.23;;
18387;SDS011;9320;50.256;19.026;2023-06-22T05:15:14;28.75;;;21.48;;
18387;SDS011;9320;50.256;19.026;2023-06-22T05:17:42;31.02;;;21.95;;
18387;SDS011;9320;50.256;19.026;2023-06-22T05:20:12;30.95;;;23.10;;
18387;SDS011;9320;50.256;19.026;2023-06-22T05:22:46;30.73;;;22.75;;
18387;SDS011;9320;50.256;19.026;2023-06-22T05:25:14;30.15;;;21.15;;
18387;SDS011;9320;50.256;19.026;2023-06-22T05:27:42;28.00;;;21.73;;
18387;SDS011;9320;50.256;19.026;2023-06-22T05:30:10;30.30;;;22.38;;
18387;SDS011;9320;50.256;19.026;2023-06-22T05:32:38;28.83;;;22.70;;
18387;SDS011;9320;50.256;19.026;2023-06-22T05:35:07;27.08;;;22.17;;
18387;SDS011;9320;50.256;19.026;2023-06-22T05:37:35;32.70;;;24.20;;
18387;SDS011;9320;50.256;19.026;2023-06-22T05:40:05;33.42;;;24.20;;
18387;SDS011;9320;50.256;19.026;2023-06-22T05:42:35;30.77;;;22.55;;
18387;SDS011;9320;50.256;19.026;2023-06-22T05:45:04;31.75;;;23.10;;
18387;SDS011;9320;50.256;19.026;2023-06-22T05:47:33;28.98;;;22.30;;
18387;SDS011;9320;50.256;19.026;2023-06-22T05:50:01;27.90;;;23.40;;
18387;SDS011;9320;50.256;19.026;2023-06-22T05:52:32;28.92;;;22.50;;
18387;SDS011;9320;50.256;19.026;2023-06-22T05:55:01;30.60;;;24.25;;
18387;SDS011;9320;50.256;19.026;2023-06-22T05:57:31;27.42;;;22.63;;
18387;SDS011;9320;50.256;19.026;2023-06-22T05:59:59;29.10;;;22.02;;
18387;SDS011;9320;50.256;19.026;2023-06-22T06:02:27;28.92;;;21.70;;
18387;SDS011;9320;50.256;19.026;2023-06-22T06:04:55;34.97;;;23.90;;
18387;SDS011;9320;50.256;19.026;2023-06-22T06:07:23;26.55;;;22.88;;
18387;SDS011;9320;50.256;19.026;2023-06-22T06:09:52;27.55;;;21.67;;
18387;SDS011;9320;50.256;19.026;2023-06-22T06:12:20;29.35;;;23.80;;
18387;SDS011;9320;50.256;19.026;2023-06-22T06:14:49;30.30;;;22.90;;
18387;SDS011;9320;50.256;19.026;2023-06-22T06:17:19;29.67;;;23.05;;
18387;SDS011;9320;50.256;19.026;2023-06-22T06:19:47;27.83;;;22.50;;
18387;SDS011;9320;50.256;19.026;2023-06-22T06:22:15;32.20;;;24.10;;
18387;SDS011;9320;50.256;19.026;2023-06-22T06:24:45;25.40;;;22.58;;
18387;SDS011;9320;50.256;19.026;2023-06-22T06:27:13;26.50;;;21.55;;
18387;SDS011;9320;50.256;19.026;2023-06-22T06:29:41;28.58;;;21.80;;
18387;SDS011;9320;50.256;19.026;2023-06-22T06:32:13;29.35;;;22.20;;
18387;SDS011;9320;50.256;19.026;2023-06-22T06:34:41;26.15;;;21.10;;
18387;SDS011;9320;50.256;19.026;2023-06-22T06:37:09;28.95;;;22.73;;
18387;SDS011;9320;50.256;19.026;2023-06-22T06:39:37;26.45;;;21.25;;
18387;SDS011;9320;50.256;19.026;2023-06-22T06:42:07;27.40;;;22.83;;
18387;SDS011;9320;50.256;19.026;2023-06-22T06:44:37;27.77;;;22.65;;
18387;SDS011;9320;50.256;19.026;2023-06-22T06:47:05;28.30;;;22.23;;
18387;SDS011;9320;50.256;19.026;2023-06-22T06:49:35;31.65;;;24.05;;
18387;SDS011;9320;50.256;19.026;2023-06-22T06:52:03;27.30;;;22.42;;
18387;SDS011;9320;50.256;19.026;2023-06-22T06:54:31;27.02;;;22.10;;
18387;SDS011;9320;50.256;19.026;2023-06-22T06:56:59;30.20;;;23.02;;
18387;SDS011;9320;50.256;19.026;2023-06-22T06:59:29;29.10;;;22.55;;
18387;SDS011;9320;50.256;19.026;2023-06-22T07:01:57;28.38;;;23.63;;
18387;SDS011;9320;50.256;19.026;2023-06-22T07:04:25;26.48;;;21.85;;
18387;SDS011;9320;50.256;19.026;2023-06-22T07:06:55;24.92;;;21.80;;
18387;SDS011;9320;50.256;19.026;2023-06-22T07:09:23;25.55;;;21.08;;
18387;SDS011;9320;50.256;19.026;2023-06-22T07:11:51;23.13;;;19.95;;
18387;SDS011;9320;50.256;19.026;2023-06-22T07:14:19;26.58;;;20.90;;
18387;SDS011;9320;50.256;19.026;2023-06-22T07:16:47;26.02;;;18.45;;
18387;SDS011;9320;50.256;19.026;2023-06-22T07:19:15;23.90;;;17.55;;
18387;SDS011;9320;50.256;19.026;2023-06-22T07:21:43;23.38;;;19.15;;
18387;SDS011;9320;50.256;19.026;2023-06-22T07:24:12;20.55;;;16.85;;
18387;SDS011;9320;50.256;19.026;2023-06-22T07:26:40;21.42;;;16.50;;
18387;SDS011;9320;50.256;19.026;2023-06-22T07:29:11;23.23;;;15.55;;
18387;SDS011;9320;50.256;19.026;2023-06-22T07:31:39;20.33;;;14.60;;
18387;SDS011;9320;50.256;19.026;2023-06-22T07:34:08;17.67;;;15.07;;
18387;SDS011;9320;50.256;19.026;2023-06-22T07:36:36;16.52;;;14.82;;
18387;SDS011;9320;50.256;19.026;2023-06-22T07:39:04;15.75;;;14.15;;
18387;SDS011;9320;50.256;19.026;2023-06-22T07:41:33;18.00;;;13.50;;
18387;SDS011;9320;50.256;19.026;2023-06-22T07:44:01;14.13;;;12.68;;
18387;SDS011;9320;50.256;19.026;2023-06-22T07:46:30;15.50;;;12.40;;
18387;SDS011;9320;50.256;19.026;2023-06-22T07:48:58;13.82;;;12.43;;
18387;SDS011;9320;50.256;19.026;2023-06-22T07:51:27;14.77;;;13.02;;
18387;SDS011;9320;50.256;19.026;2023-06-22T07:53:55;14.15;;;12.30;;
18387;SDS011;9320;50.256;19.026;2023-06-22T07:56:23;13.10;;;11.90;;
18387;SDS011;9320;50.256;19.026;2023-06-22T07:58:53;13.35;;;11.93;;
18387;SDS011;9320;50.256;19.026;2023-06-22T08:01:21;13.10;;;11.70;;
18387;SDS011;9320;50.256;19.026;2023-06-22T08:03:49;13.45;;;11.73;;
18387;SDS011;9320;50.256;19.026;2023-06-22T08:06:17;13.23;;;10.50;;
18387;SDS011;9320;50.256;19.026;2023-06-22T08:08:45;15.15;;;10.43;;
18387;SDS011;9320;50.256;19.026;2023-06-22T08:11:15;11.85;;;10.70;;
18387;SDS011;9320;50.256;19.026;2023-06-22T08:13:43;10.85;;;9.80;;
18387;SDS011;9320;50.256;19.026;2023-06-22T08:16:12;11.10;;;10.00;;
18387;SDS011;9320;50.256;19.026;2023-06-22T08:18:41;11.73;;;10.20;;
18387;SDS011;9320;50.256;19.026;2023-06-22T08:21:09;11.60;;;10.05;;
18387;SDS011;9320;50.256;19.026;2023-06-22T08:23:37;10.40;;;9.13;;
18387;SDS011;9320;50.256;19.026;2023-06-22T08:26:06;14.60;;;10.00;;
18387;SDS011;9320;50.256;19.026;2023-06-22T08:28:34;10.95;;;9.57;;
18387;SDS011;9320;50.256;19.026;2023-06-22T08:31:02;11.23;;;9.95;;
18387;SDS011;9320;50.256;19.026;2023-06-22T08:33:32;18.65;;;9.10;;
18387;SDS011;9320;50.256;19.026;2023-06-22T08:36:00;10.45;;;9.20;;
18387;SDS011;9320;50.256;19.026;2023-06-22T08:38:28;10.35;;;9.20;;
18387;SDS011;9320;50.256;19.026;2023-06-22T08:40:56;10.00;;;9.00;;
18387;SDS011;9320;50.256;19.026;2023-06-22T08:43:24;10.45;;;9.27;;
18387;SDS011;9320;50.256;19.026;2023-06-22T08:45:52;10.68;;;9.02;;
18387;SDS011;9320;50.256;19.026;2023-06-22T08:48:20;10.88;;;8.80;;
18387;SDS011;9320;50.256;19.026;2023-06-22T08:50:49;11.20;;;8.70;;
18387;SDS011;9320;50.256;19.026;2023-06-22T08:53:17;25.98;;;8.32;;
18387;SDS011;9320;50.256;19.026;2023-06-22T08:55:45;11.77;;;8.85;;
18387;SDS011;9320;50.256;19.026;2023-06-22T08:58:13;10.23;;;8.35;;
18387;SDS011;9320;50.256;19.026;2023-06-22T09:00:41;13.63;;;7.60;;
18387;SDS011;9320;50.256;19.026;2023-06-22T09:03:09;11.25;;;8.02;;
18387;SDS011;9320;50.256;19.026;2023-06-22T09:05:38;8.98;;;8.07;;
18387;SDS011;9320;50.256;19.026;2023-06-22T09:08:08;12.90;;;8.73;;
18387;SDS011;9320;50.256;19.026;2023-06-22T09:10:36;11.10;;;8.82;;
18387;SDS011;9320;50.256;19.026;2023-06-22T09:13:04;9.20;;;8.20;;
18387;SDS011;9320;50.256;19.026;2023-06-22T09:15:32;9.63;;;8.38;;
18387;SDS011;9320;50.256;19.026;2023-06-22T09:18:00;10.98;;;9.40;;
18387;SDS011;9320;50.256;19.026;2023-06-22T09:20:29;9.07;;;8.05;;
18387;SDS011;9320;50.256;19.026;2023-06-22T09:22:57;9.15;;;8.27;;
18387;SDS011;9320;50.256;19.026;2023-06-22T09:25:27;9.38;;;8.43;;
18387;SDS011;9320;50.256;19.026;2023-06-22T09:27:55;9.52;;;8.63;;
18387;SDS011;9320;50.256;19.026;2023-06-22T09:30:23;10.88;;;9.10;;
18387;SDS011;9320;50.256;19.026;2023-06-22T09:32:51;10.23;;;9.20;;
18387;SDS011;9320;50.256;19.026;2023-06-22T09:35:20;9.68;;;8.68;;
18387;SDS011;9320;50.256;19.026;2023-06-22T09:37:48;9.40;;;8.35;;
18387;SDS011;9320;50.256;19.026;2023-06-22T09:40:19;9.55;;;8.55;;
18387;SDS011;9320;50.256;19.026;2023-06-22T09:42:48;7.93;;;7.22;;
18387;SDS011;9320;50.256;19.026;2023-06-22T09:45:16;10.90;;;7.80;;
18387;SDS011;9320;50.256;19.026;2023-06-22T09:47:44;8.82;;;7.90;;
18387;SDS011;9320;50.256;19.026;2023-06-22T09:50:12;8.98;;;7.88;;
18387;SDS011;9320;50.256;19.026;2023-06-22T09:52:40;9.00;;;8.13;;
18387;SDS011;9320;50.256;19.026;2023-06-22T09:55:14;8.88;;;7.95;;
18387;SDS011;9320;50.256;19.026;2023-06-22T09:57:43;9.02;;;7.75;;
18387;SDS011;9320;50.256;19.026;2023-06-22T10:00:13;8.18;;;7.38;;
18387;SDS011;9320;50.256;19.026;2023-06-22T10:02:43;7.95;;;7.18;;
18387;SDS011;9320;50.256;19.026;2023-06-22T10:05:11;8.30;;;7.50;;
18387;SDS011;9320;50.256;19.026;2023-06-22T10:07:40;14.52;;;8.10;;
18387;SDS011;9320;50.256;19.026;2023-06-22T10:10:11;11.85;;;7.85;;
18387;SDS011;9320;50.256;19.026;2023-06-22T10:12:41;10.15;;;7.90;;
18387;SDS011;9320;50.256;19.026;2023-06-22T10:15:10;9.02;;;7.88;;
18387;SDS011;9320;50.256;19.026;2023-06-22T10:17:40;13.45;;;8.80;;
18387;SDS011;9320;50.256;19.026;2023-06-22T10:20:08;9.45;;;7.40;;
18387;SDS011;9320;50.256;19.026;2023-06-22T10:22:40;9.73;;;8.35;;
18387;SDS011;9320;50.256;19.026;2023-06-22T10:25:09;8.52;;;7.60;;
18387;SDS011;9320;50.256;19.026;2023-06-22T10:27:39;10.07;;;8.30;;
18387;SDS011;9320;50.256;19.026;2023-06-22T10:30:08;8.50;;;7.70;;
18387;SDS011;9320;50.256;19.026;2023-06-22T10:32:41;8.43;;;7.57;;
18387;SDS011;9320;50.256;19.026;2023-06-22T10:35:10;9.10;;;7.57;;
18387;SDS011;9320;50.256;19.026;2023-06-22T10:37:40;15.68;;;8.98;;
18387;SDS011;9320;50.256;19.026;2023-06-22T10:40:10;11.45;;;8.40;;
18387;SDS011;9320;50.256;19.026;2023-06-22T10:42:39;11.80;;;8.75;;
18387;SDS011;9320;50.256;19.026;2023-06-22T10:45:08;9.57;;;8.57;;
18387;SDS011;9320;50.256;19.026;2023-06-22T10:47:37;10.02;;;9.00;;
18387;SDS011;9320;50.256;19.026;2023-06-22T10:50:07;9.60;;;8.70;;
18387;SDS011;9320;50.256;19.026;2023-06-22T10:52:35;9.50;;;8.60;;
18387;SDS011;9320;50.256;19.026;2023-06-22T10:55:04;9.80;;;8.80;;
18387;SDS011;9320;50.256;19.026;2023-06-22T10:57:32;9.15;;;8.25;;
18387;SDS011;9320;50.256;19.026;2023-06-22T11:00:00;11.73;;;8.70;;
18387;SDS011;9320;50.256;19.026;2023-06-22T11:02:32;11.25;;;9.18;;
18387;SDS011;9320;50.256;19.026;2023-06-22T11:05:00;12.80;;;9.50;;
18387;SDS011;9320;50.256;19.026;2023-06-22T11:07:31;10.48;;;9.38;;
18387;SDS011;9320;50.256;19.026;2023-06-22T11:09:59;11.65;;;9.27;;
18387;SDS011;9320;50.256;19.026;2023-06-22T11:12:27;11.05;;;9.23;;
18387;SDS011;9320;50.256;19.026;2023-06-22T11:14:55;10.52;;;9.43;;
18387;SDS011;9320;50.256;19.026;2023-06-22T11:17:25;12.02;;;9.60;;
18387;SDS011;9320;50.256;19.026;2023-06-22T11:19:53;10.63;;;9.63;;
18387;SDS011;9320;50.256;19.026;2023-06-22T11:22:21;11.40;;;9.20;;
18387;SDS011;9320;50.256;19.026;2023-06-22T11:24:50;12.23;;;10.00;;
18387;SDS011;9320;50.256;19.026;2023-06-22T11:27:18;12.65;;;10.38;;
18387;SDS011;9320;50.256;19.026;2023-06-22T11:29:47;10.98;;;9.82;;
18387;SDS011;9320;50.256;19.026;2023-06-22T11:32:16;10.60;;;9.50;;
18387;SDS011;9320;50.256;19.026;2023-06-22T11:34:44;11.73;;;9.35;;
18387;SDS011;9320;50.256;19.026;2023-06-22T11:37:12;13.70;;;9.90;;
18387;SDS011;9320;50.256;19.026;2023-06-22T11:39:40;10.55;;;9.18;;
18387;SDS011;9320;50.256;19.026;2023-06-22T11:42:20;10.23;;;9.15;;
18387;SDS011;9320;50.256;19.026;2023-06-22T11:44:49;10.48;;;9.48;;
18387;SDS011;9320;50.256;19.026;2023-06-22T11:47:17;9.65;;;8.50;;
18387;SDS011;9320;50.256;19.026;2023-06-22T11:49:45;12.38;;;9.65;;
18387;SDS011;9320;50.256;19.026;2023-06-22T11:52:14;11.23;;;8.93;;
18387;SDS011;9320;50.256;19.026;2023-06-22T11:54:44;10.50;;;9.00;;
18387;SDS011;9320;50.256;19.026;2023-06-22T11:57:12;10.43;;;9.35;;
18387;SDS011;9320;50.256;19.026;2023-06-22T11:59:41;13.20;;;8.90;;
18387;SDS011;9320;50.256;19.026;2023-06-22T12:02:09;10.65;;;8.57;;
18387;SDS011;9320;50.256;19.026;2023-06-22T12:04:37;11.80;;;9.40;;
18387;SDS011;9320;50.256;19.026;2023-06-22T12:07:05;10.88;;;9.75;;
18387;SDS011;9320;50.256;19.026;2023-06-22T12:09:33;11.15;;;9.40;;
18387;SDS011;9320;50.256;19.026;2023-06-22T12:12:01;14.02;;;9.55;;
18387;SDS011;9320;50.256;19.026;2023-06-22T12:14:32;11.07;;;9.57;;
18387;SDS011;9320;50.256;19.026;2023-06-22T12:17:02;11.98;;;9.23;;
18387;SDS011;9320;50.256;19.026;2023-06-22T12:19:30;12.35;;;9.48;;
18387;SDS011;9320;50.256;19.026;2023-06-22T12:21:58;10.75;;;9.65;;
18387;SDS011;9320;50.256;19.026;2023-06-22T12:24:26;12.20;;;9.73;;
18387;SDS011;9320;50.256;19.026;2023-06-22T12:26:54;12.63;;;9.65;;
18387;SDS011;9320;50.256;19.026;2023-06-22T12:29:22;10.90;;;9.00;;
18387;SDS011;9320;50.256;19.026;2023-06-22T12:31:50;11.38;;;10.27;;
18387;SDS011;9320;50.256;19.026;2023-06-22T12:34:19;12.15;;;10.68;;
18387;SDS011;9320;50.256;19.026;2023-06-22T12:36:47;12.45;;;10.10;;
18387;SDS011;9320;50.256;19.026;2023-06-22T12:39:16;12.40;;;9.95;;
18387;SDS011;9320;50.256;19.026;2023-06-22T12:41:44;11.75;;;10.55;;
18387;SDS011;9320;50.256;19.026;2023-06-22T12:44:12;12.73;;;10.73;;
18387;SDS011;9320;50.256;19.026;2023-06-22T12:46:40;11.18;;;10.07;;
18387;SDS011;9320;50.256;19.026;2023-06-22T12:49:08;11.63;;;9.82;;
18387;SDS011;9320;50.256;19.026;2023-06-22T12:51:40;11.65;;;10.30;;
18387;SDS011;9320;50.256;19.026;2023-06-22T12:54:09;11.40;;;9.55;;
18387;SDS011;9320;50.256;19.026;2023-06-22T12:56:38;13.73;;;10.25;;
18387;SDS011;9320;50.256;19.026;2023-06-22T12:59:06;12.10;;;10.07;;
18387;SDS011;9320;50.256;19.026;2023-06-22T13:01:34;11.18;;;9.98;;
18387;SDS011;9320;50.256;19.026;2023-06-22T13:04:03;11.73;;;9.60;;
18387;SDS011;9320;50.256;19.026;2023-06-22T13:06:31;12.40;;;10.63;;
18387;SDS011;9320;50.256;19.026;2023-06-22T13:09:01;13.13;;;10.32;;
18387;SDS011;9320;50.256;19.026;2023-06-22T13:11:34;14.75;;;10.27;;
18387;SDS011;9320;50.256;19.026;2023-06-22T13:14:02;17.02;;;10.23;;
18387;SDS011;9320;50.256;19.026;2023-06-22T13:16:32;15.73;;;10.50;;
18387;SDS011;9320;50.256;19.026;2023-06-22T13:19:00;14.35;;;10.68;;
18387;SDS011;9320;50.256;19.026;2023-06-22T13:21:28;13.00;;;10.60;;
18387;SDS011;9320;50.256;19.026;2023-06-22T13:23:57;13.23;;;10.63;;
18387;SDS011;9320;50.256;19.026;2023-06-22T13:26:26;11.82;;;10.48;;
18387;SDS011;9320;50.256;19.026;2023-06-22T13:28:55;11.55;;;10.35;;
18387;SDS011;9320;50.256;19.026;2023-06-22T13:31:23;13.48;;;10.98;;
18387;SDS011;9320;50.256;19.026;2023-06-22T13:33:51;11.77;;;9.90;;
18387;SDS011;9320;50.256;19.026;2023-06-22T13:36:19;12.77;;;11.18;;
18387;SDS011;9320;50.256;19.026;2023-06-22T13:38:49;10.95;;;9.85;;
18387;SDS011;9320;50.256;19.026;2023-06-22T13:41:17;11.32;;;10.13;;
18387;SDS011;9320;50.256;19.026;2023-06-22T13:43:47;11.07;;;9.80;;
18387;SDS011;9320;50.256;19.026;2023-06-22T13:46:15;13.30;;;10.18;;
18387;SDS011;9320;50.256;19.026;2023-06-22T13:48:43;11.93;;;10.70;;
18387;SDS011;9320;50.256;19.026;2023-06-22T13:51:12;13.00;;;10.38;;
18387;SDS011;9320;50.256;19.026;2023-06-22T13:53:40;12.95;;;10.80;;
18387;SDS011;9320;50.256;19.026;2023-06-22T13:56:08;12.73;;;10.38;;
18387;SDS011;9320;50.256;19.026;2023-06-22T13:58:37;11.40;;;10.30;;
18387;SDS011;9320;50.256;19.026;2023-06-22T14:01:06;16.98;;;10.45;;
18387;SDS011;9320;50.256;19.026;2023-06-22T14:03:42;11.95;;;10.40;;
18387;SDS011;9320;50.256;19.026;2023-06-22T14:06:12;14.77;;;11.13;;
18387;SDS011;9320;50.256;19.026;2023-06-22T14:08:40;16.00;;;11.05;;
18387;SDS011;9320;50.256;19.026;2023-06-22T14:11:08;14.45;;;10.65;;
18387;SDS011;9320;50.256;19.026;2023-06-22T14:13:36;11.52;;;10.40;;
18387;SDS011;9320;50.256;19.026;2023-06-22T14:16:05;13.93;;;10.70;;
18387;SDS011;9320;50.256;19.026;2023-06-22T14:18:33;12.02;;;10.82;;
18387;SDS011;9320;50.256;19.026;2023-06-22T14:21:01;13.32;;;10.93;;
18387;SDS011;9320;50.256;19.026;2023-06-22T14:23:30;14.10;;;10.43;;
18387;SDS011;9320;50.256;19.026;2023-06-22T14:25:58;13.00;;;10.02;;
18387;SDS011;9320;50.256;19.026;2023-06-22T14:28:26;12.57;;;11.00;;
18387;SDS011;9320;50.256;19.026;2023-06-22T14:30:53;13.80;;;11.18;;
18387;SDS011;9320;50.256;19.026;2023-06-22T14:33:24;13.57;;;11.00;;
18387;SDS011;9320;50.256;19.026;2023-06-22T14:35:52;13.35;;;10.98;;